sensor_id;sensor_type;location;lat;lon;timestamp;P1;durP1;ratioP1;P2;durP2;ratioP2
20203;SDS011;10261;49.010;12.034;2023-04-29T00:00:38;7.30;;;2.83;;
20203;SDS011;10261;49.010;12.034;2023-04-29T00:01:41;3.20;;;2.50;;
20203;SDS011;10261;49.010;12.034;2023-04-29T00:02:44;3.45;;;2.42;;
20203;SDS011;10261;49.010;12.034;2023-04-29T00:03:46;3.30;;;2.50;;
20203;SDS011;10261;49.010;12.034;2023-04-29T00:04:49;2.53;;;2.33;;
20203;SDS011;10261;49.010;12.034;2023-04-29T00:05:52;6.60;;;2.72;;
20203;SDS011;10261;49.010;12.034;2023-04-29T00:06:55;3.47;;;2.67;;
20203;SDS011;10261;49.010;12.034;2023-04-29T00:07:57;2.20;;;2.00;;
20203;SDS011;10261;49.010;12.034;2023-04-29T00:09:00;2.70;;;2.50;;
20203;SDS011;10261;49.010;12.034;2023-04-29T00:10:03;2.22;;;2.00;;
20203;SDS011;10261;49.010;12.034;2023-04-29T00:11:06;4.30;;;2.55;;
20203;SDS011;10261;49.010;12.034;2023-04-29T00:12:10;5.63;;;2.92;;
20203;SDS011;10261;49.010;12.034;2023-04-29T00:13:13;2.53;;;2.33;;
20203;SDS011;10261;49.010;12.034;2023-04-29T00:14:14;3.30;;;3.00;;
20203;SDS011;10261;49.010;12.034;2023-04-29T00:15:18;2.95;;;2.55;;
20203;SDS011;10261;49.010;12.034;2023-04-29T00:16:20;2.88;;;2.67;;
20203;SDS011;10261;49.010;12.034;2023-04-29T00:17:23;3.28;;;2.45;;
20203;SDS011;10261;49.010;12.034;2023-04-29T00:18:25;3.10;;;2.78;;
20203;SDS011;10261;49.010;12.034;2023-04-29T00:19:28;3.50;;;3.20;;
20203;SDS011;10261;49.010;12.034;2023-04-29T00:20:30;3.45;;;3.13;;
20203;SDS011;10261;49.010;12.034;2023-04-29T00:21:33;4.15;;;3.28;;
20203;SDS011;10261;49.010;12.034;2023-04-29T00:22:35;4.18;;;3.67;;
20203;SDS011;10261;49.010;12.034;2023-04-29T00:23:38;3.97;;;3.10;;
20203;SDS011;10261;49.010;12.034;2023-04-29T00:24:41;5.75;;;4.13;;
20203;SDS011;10261;49.010;12.034;2023-04-29T00:25:44;3.75;;;3.35;;
20203;SDS011;10261;49.010;12.034;2023-04-29T00:26:46;5.30;;;4.28;;
20203;SDS011;10261;49.010;12.034;2023-04-29T00:27:50;5.15;;;4.65;;
20203;SDS011;10261;49.010;12.034;2023-04-29T00:28:52;5.65;;;5.15;;
20203;SDS011;10261;49.010;12.034;2023-04-29T00:29:55;5.30;;;4.13;;
20203;SDS011;10261;49.010;12.034;2023-04-29T00:30:57;3.75;;;3.40;;
20203;SDS011;10261;49.010;12.034;2023-04-29T00:32:01;4.95;;;3.55;;
20203;SDS011;10261;49.010;12.034;2023-04-29T00:33:03;4.30;;;3.90;;
20203;SDS011;10261;49.010;12.034;2023-04-29T00:34:06;5.57;;;5.05;;
20203;SDS011;10261;49.010;12.034;2023-04-29T00:35:08;5.22;;;4.72;;
20203;SDS011;10261;49.010;12.034;2023-04-29T00:36:11;4.05;;;3.70;;
20203;SDS011;10261;49.010;12.034;2023-04-29T00:37:13;4.20;;;3.80;;
20203;SDS011;10261;49.010;12.034;2023-04-29T00:38:17;5.20;;;4.70;;
20203;SDS011;10261;49.010;12.034;2023-04-29T00:39:19;6.65;;;4.80;;
20203;SDS011;10261;49.010;12.034;2023-04-29T00:40:21;4.00;;;3.65;;
20203;SDS011;10261;49.010;12.034;2023-04-29T00:41:24;4.47;;;4.07;;
20203;SDS011;10261;49.010;12.034;2023-04-29T00:42:27;5.07;;;4.63;;
20203;SDS011;10261;49.010;12.034;2023-04-29T00:43:32;5.90;;;4.75;;
20203;SDS011;10261;49.010;12.034;2023-04-29T00:44:35;3.88;;;3.45;;
20203;SDS011;10261;49.010;12.034;2023-04-29T00:45:36;4.15;;;3.80;;
20203;SDS011;10261;49.010;12.034;2023-04-29T00:46:39;4.53;;;4.07;;
20203;SDS011;10261;49.010;12.034;2023-04-29T00:47:42;4.60;;;4.20;;
20203;SDS011;10261;49.010;12.034;2023-04-29T00:48:45;7.20;;;4.43;;
20203;SDS011;10261;49.010;12.034;2023-04-29T00:49:47;4.82;;;4.25;;
20203;SDS011;10261;49.010;12.034;2023-04-29T00:50:50;5.38;;;4.60;;
20203;SDS011;10261;49.010;12.034;2023-04-29T00:51:52;5.25;;;4.75;;
20203;SDS011;10261;49.010;12.034;2023-04-29T00:52:55;5.60;;;5.00;;
20203;SDS011;10261;49.010;12.034;2023-04-29T00:53:57;5.03;;;4.53;;
20203;SDS011;10261;49.010;12.034;2023-04-29T00:55:00;5.70;;;5.00;;
20203;SDS011;10261;49.010;12.034;2023-04-29T00:56:04;5.22;;;4.72;;
20203;SDS011;10261;49.010;12.034;2023-04-29T00:57:08;7.00;;;4.50;;
20203;SDS011;10261;49.010;12.034;2023-04-29T00:58:10;7.55;;;5.25;;
20203;SDS011;10261;49.010;12.034;2023-04-29T00:59:15;5.50;;;4.70;;
20203;SDS011;10261;49.010;12.034;2023-04-29T01:00:17;4.70;;;3.95;;
20203;SDS011;10261;49.010;12.034;2023-04-29T01:01:21;4.30;;;3.90;;
20203;SDS011;10261;49.010;12.034;2023-04-29T01:02:23;5.13;;;3.80;;
20203;SDS011;10261;49.010;12.034;2023-04-29T01:03:27;4.13;;;3.80;;
20203;SDS011;10261;49.010;12.034;2023-04-29T01:04:29;5.45;;;4.95;;
20203;SDS011;10261;49.010;12.034;2023-04-29T01:05:33;5.15;;;4.53;;
20203;SDS011;10261;49.010;12.034;2023-04-29T01:06:37;5.32;;;4.82;;
20203;SDS011;10261;49.010;12.034;2023-04-29T01:07:55;5.53;;;5.03;;
20203;SDS011;10261;49.010;12.034;2023-04-29T01:09:15;8.57;;;5.28;;
20203;SDS011;10261;49.010;12.034;2023-04-29T01:10:28;6.05;;;5.47;;
20203;SDS011;10261;49.010;12.034;2023-04-29T01:11:38;5.90;;;4.75;;
20203;SDS011;10261;49.010;12.034;2023-04-29T01:12:52;5.70;;;5.10;;
20203;SDS011;10261;49.010;12.034;2023-04-29T01:14:04;8.48;;;5.22;;
20203;SDS011;10261;49.010;12.034;2023-04-29T01:15:09;7.75;;;5.60;;
20203;SDS011;10261;49.010;12.034;2023-04-29T01:16:24;5.88;;;5.30;;
20203;SDS011;10261;49.010;12.034;2023-04-29T01:17:35;6.07;;;4.68;;
20203;SDS011;10261;49.010;12.034;2023-04-29T01:18:42;5.40;;;4.85;;
20203;SDS011;10261;49.010;12.034;2023-04-29T01:19:51;5.95;;;4.60;;
20203;SDS011;10261;49.010;12.034;2023-04-29T01:20:57;5.97;;;5.45;;
20203;SDS011;10261;49.010;12.034;2023-04-29T01:22:00;11.30;;;5.20;;
20203;SDS011;10261;49.010;12.034;2023-04-29T01:23:03;5.97;;;5.05;;
20203;SDS011;10261;49.010;12.034;2023-04-29T01:24:06;5.82;;;5.20;;
20203;SDS011;10261;49.010;12.034;2023-04-29T01:25:09;5.50;;;5.00;;
20203;SDS011;10261;49.010;12.034;2023-04-29T01:26:11;6.85;;;5.45;;
20203;SDS011;10261;49.010;12.034;2023-04-29T01:27:16;5.85;;;5.03;;
20203;SDS011;10261;49.010;12.034;2023-04-29T01:28:30;7.10;;;4.78;;
20203;SDS011;10261;49.010;12.034;2023-04-29T01:29:46;5.82;;;4.32;;
20203;SDS011;10261;49.010;12.034;2023-04-29T01:30:55;8.40;;;5.68;;
20203;SDS011;10261;49.010;12.034;2023-04-29T01:32:03;5.95;;;5.25;;
20203;SDS011;10261;49.010;12.034;2023-04-29T01:33:11;5.20;;;4.32;;
20203;SDS011;10261;49.010;12.034;2023-04-29T01:34:21;5.35;;;4.60;;
20203;SDS011;10261;49.010;12.034;2023-04-29T01:35:32;5.75;;;5.18;;
20203;SDS011;10261;49.010;12.034;2023-04-29T01:36:49;5.28;;;4.75;;
20203;SDS011;10261;49.010;12.034;2023-04-29T01:38:03;5.57;;;4.80;;
20203;SDS011;10261;49.010;12.034;2023-04-29T01:39:19;6.53;;;5.70;;
20203;SDS011;10261;49.010;12.034;2023-04-29T01:40:29;5.95;;;4.60;;
20203;SDS011;10261;49.010;12.034;2023-04-29T01:41:39;8.00;;;5.10;;
20203;SDS011;10261;49.010;12.034;2023-04-29T01:42:46;7.35;;;5.75;;
20203;SDS011;10261;49.010;12.034;2023-04-29T01:43:52;9.65;;;5.68;;
20203;SDS011;10261;49.010;12.034;2023-04-29T01:44:59;9.70;;;5.70;;
20203;SDS011;10261;49.010;12.034;2023-04-29T01:46:05;8.90;;;4.90;;
20203;SDS011;10261;49.010;12.034;2023-04-29T01:47:12;7.90;;;5.50;;
20203;SDS011;10261;49.010;12.034;2023-04-29T01:48:15;5.47;;;4.95;;
20203;SDS011;10261;49.010;12.034;2023-04-29T01:49:19;5.50;;;4.32;;
20203;SDS011;10261;49.010;12.034;2023-04-29T01:50:21;6.88;;;4.82;;
20203;SDS011;10261;49.010;12.034;2023-04-29T01:51:24;5.00;;;4.50;;
20203;SDS011;10261;49.010;12.034;2023-04-29T01:52:28;6.97;;;5.25;;
20203;SDS011;10261;49.010;12.034;2023-04-29T01:53:31;5.72;;;4.80;;
20203;SDS011;10261;49.010;12.034;2023-04-29T01:54:35;6.18;;;5.57;;
20203;SDS011;10261;49.010;12.034;2023-04-29T01:55:38;5.65;;;4.53;;
20203;SDS011;10261;49.010;12.034;2023-04-29T01:56:40;5.15;;;4.65;;
20203;SDS011;10261;49.010;12.034;2023-04-29T01:57:43;6.40;;;4.40;;
20203;SDS011;10261;49.010;12.034;2023-04-29T01:58:45;8.20;;;6.25;;
20203;SDS011;10261;49.010;12.034;2023-04-29T01:59:48;5.60;;;5.00;;
20203;SDS011;10261;49.010;12.034;2023-04-29T02:00:50;7.93;;;6.05;;
20203;SDS011;10261;49.010;12.034;2023-04-29T02:01:53;5.85;;;5.25;;
20203;SDS011;10261;49.010;12.034;2023-04-29T02:02:56;6.55;;;5.70;;
20203;SDS011;10261;49.010;12.034;2023-04-29T02:03:59;7.05;;;5.15;;
20203;SDS011;10261;49.010;12.034;2023-04-29T02:05:02;6.70;;;5.90;;
20203;SDS011;10261;49.010;12.034;2023-04-29T02:06:05;9.85;;;5.57;;
20203;SDS011;10261;49.010;12.034;2023-04-29T02:07:07;7.05;;;6.10;;
20203;SDS011;10261;49.010;12.034;2023-04-29T02:08:10;5.78;;;5.18;;
20203;SDS011;10261;49.010;12.034;2023-04-29T02:09:13;6.95;;;5.22;;
20203;SDS011;10261;49.010;12.034;2023-04-29T02:10:17;8.90;;;4.95;;
20203;SDS011;10261;49.010;12.034;2023-04-29T02:11:19;5.82;;;4.70;;
20203;SDS011;10261;49.010;12.034;2023-04-29T02:12:22;8.43;;;6.00;;
20203;SDS011;10261;49.010;12.034;2023-04-29T02:13:24;5.95;;;5.35;;
20203;SDS011;10261;49.010;12.034;2023-04-29T02:14:27;5.25;;;4.70;;
20203;SDS011;10261;49.010;12.034;2023-04-29T02:15:29;5.97;;;5.13;;
20203;SDS011;10261;49.010;12.034;2023-04-29T02:16:32;6.18;;;5.15;;
20203;SDS011;10261;49.010;12.034;2023-04-29T02:17:34;7.32;;;5.60;;
20203;SDS011;10261;49.010;12.034;2023-04-29T02:18:37;7.47;;;5.25;;
20203;SDS011;10261;49.010;12.034;2023-04-29T02:19:40;7.20;;;5.35;;
20203;SDS011;10261;49.010;12.034;2023-04-29T02:20:43;7.45;;;5.50;;
20203;SDS011;10261;49.010;12.034;2023-04-29T02:21:45;6.38;;;4.68;;
20203;SDS011;10261;49.010;12.034;2023-04-29T02:22:48;4.40;;;4.00;;
20203;SDS011;10261;49.010;12.034;2023-04-29T02:23:50;7.57;;;5.70;;
20203;SDS011;10261;49.010;12.034;2023-04-29T02:24:54;7.38;;;5.35;;
20203;SDS011;10261;49.010;12.034;2023-04-29T02:25:58;5.40;;;5.00;;
20203;SDS011;10261;49.010;12.034;2023-04-29T02:27:01;7.45;;;5.57;;
20203;SDS011;10261;49.010;12.034;2023-04-29T02:28:06;9.02;;;4.65;;
20203;SDS011;10261;49.010;12.034;2023-04-29T02:29:09;7.35;;;4.93;;
20203;SDS011;10261;49.010;12.034;2023-04-29T02:30:11;6.07;;;5.32;;
20203;SDS011;10261;49.010;12.034;2023-04-29T02:31:14;8.45;;;5.65;;
20203;SDS011;10261;49.010;12.034;2023-04-29T02:32:16;7.80;;;6.07;;
20203;SDS011;10261;49.010;12.034;2023-04-29T02:33:20;7.45;;;6.13;;
20203;SDS011;10261;49.010;12.034;2023-04-29T02:34:22;13.93;;;6.28;;
20203;SDS011;10261;49.010;12.034;2023-04-29T02:35:25;9.75;;;6.90;;
20203;SDS011;10261;49.010;12.034;2023-04-29T02:36:27;8.48;;;7.57;;
20203;SDS011;10261;49.010;12.034;2023-04-29T02:37:30;9.55;;;7.63;;
20203;SDS011;10261;49.010;12.034;2023-04-29T02:38:32;7.68;;;6.22;;
20203;SDS011;10261;49.010;12.034;2023-04-29T02:39:35;8.30;;;7.00;;
20203;SDS011;10261;49.010;12.034;2023-04-29T02:40:40;9.07;;;6.97;;
20203;SDS011;10261;49.010;12.034;2023-04-29T02:41:44;12.23;;;8.20;;
20203;SDS011;10261;49.010;12.034;2023-04-29T02:42:46;10.73;;;7.00;;
20203;SDS011;10261;49.010;12.034;2023-04-29T02:43:49;10.77;;;7.97;;
20203;SDS011;10261;49.010;12.034;2023-04-29T02:44:51;8.40;;;7.50;;
20203;SDS011;10261;49.010;12.034;2023-04-29T02:45:54;10.50;;;8.45;;
20203;SDS011;10261;49.010;12.034;2023-04-29T02:46:56;8.63;;;7.07;;
20203;SDS011;10261;49.010;12.034;2023-04-29T02:47:59;10.38;;;7.68;;
20203;SDS011;10261;49.010;12.034;2023-04-29T02:49:01;12.73;;;7.80;;
20203;SDS011;10261;49.010;12.034;2023-04-29T02:50:05;9.48;;;7.50;;
20203;SDS011;10261;49.010;12.034;2023-04-29T02:51:08;9.15;;;6.75;;
20203;SDS011;10261;49.010;12.034;2023-04-29T02:52:11;7.53;;;6.55;;
20203;SDS011;10261;49.010;12.034;2023-04-29T02:53:13;7.85;;;6.20;;
20203;SDS011;10261;49.010;12.034;2023-04-29T02:54:17;8.27;;;7.13;;
20203;SDS011;10261;49.010;12.034;2023-04-29T02:55:20;8.50;;;6.55;;
20203;SDS011;10261;49.010;12.034;2023-04-29T02:56:22;7.93;;;7.10;;
20203;SDS011;10261;49.010;12.034;2023-04-29T02:57:26;8.52;;;6.68;;
20203;SDS011;10261;49.010;12.034;2023-04-29T02:58:29;9.23;;;6.75;;
20203;SDS011;10261;49.010;12.034;2023-04-29T02:59:32;7.90;;;6.72;;
20203;SDS011;10261;49.010;12.034;2023-04-29T03:00:34;8.00;;;6.15;;
20203;SDS011;10261;49.010;12.034;2023-04-29T03:01:37;9.27;;;7.18;;
20203;SDS011;10261;49.010;12.034;2023-04-29T03:02:40;8.13;;;6.50;;
20203;SDS011;10261;49.010;12.034;2023-04-29T03:03:43;9.00;;;7.40;;
20203;SDS011;10261;49.010;12.034;2023-04-29T03:04:45;8.48;;;6.93;;
20203;SDS011;10261;49.010;12.034;2023-04-29T03:05:48;8.63;;;6.28;;
20203;SDS011;10261;49.010;12.034;2023-04-29T03:06:50;8.68;;;7.05;;
20203;SDS011;10261;49.010;12.034;2023-04-29T03:07:53;9.45;;;6.53;;
20203;SDS011;10261;49.010;12.034;2023-04-29T03:08:55;7.43;;;6.65;;
20203;SDS011;10261;49.010;12.034;2023-04-29T03:09:58;7.65;;;5.88;;
20203;SDS011;10261;49.010;12.034;2023-04-29T03:11:00;6.65;;;5.93;;
20203;SDS011;10261;49.010;12.034;2023-04-29T03:12:04;6.47;;;5.80;;
20203;SDS011;10261;49.010;12.034;2023-04-29T03:13:07;6.97;;;6.25;;
20203;SDS011;10261;49.010;12.034;2023-04-29T03:14:10;9.65;;;6.03;;
20203;SDS011;10261;49.010;12.034;2023-04-29T03:15:12;5.78;;;5.25;;
20203;SDS011;10261;49.010;12.034;2023-04-29T03:16:15;6.35;;;5.60;;
20203;SDS011;10261;49.010;12.034;2023-04-29T03:17:17;5.43;;;4.93;;
20203;SDS011;10261;49.010;12.034;2023-04-29T03:18:20;9.60;;;6.00;;
20203;SDS011;10261;49.010;12.034;2023-04-29T03:19:22;6.53;;;5.60;;
20203;SDS011;10261;49.010;12.034;2023-04-29T03:20:25;6.45;;;5.70;;
20203;SDS011;10261;49.010;12.034;2023-04-29T03:21:27;8.40;;;5.97;;
20203;SDS011;10261;49.010;12.034;2023-04-29T03:22:30;6.40;;;5.45;;
20203;SDS011;10261;49.010;12.034;2023-04-29T03:23:32;6.50;;;5.65;;
20203;SDS011;10261;49.010;12.034;2023-04-29T03:24:36;9.85;;;5.47;;
20203;SDS011;10261;49.010;12.034;2023-04-29T03:25:38;9.20;;;5.82;;
20203;SDS011;10261;49.010;12.034;2023-04-29T03:26:41;6.93;;;6.22;;
20203;SDS011;10261;49.010;12.034;2023-04-29T03:27:43;6.97;;;5.30;;
20203;SDS011;10261;49.010;12.034;2023-04-29T03:28:48;6.78;;;5.75;;
20203;SDS011;10261;49.010;12.034;2023-04-29T03:29:50;8.00;;;5.10;;
20203;SDS011;10261;49.010;12.034;2023-04-29T03:30:54;6.85;;;4.90;;
20203;SDS011;10261;49.010;12.034;2023-04-29T03:31:57;6.25;;;5.07;;
20203;SDS011;10261;49.010;12.034;2023-04-29T03:33:00;6.70;;;5.15;;
20203;SDS011;10261;49.010;12.034;2023-04-29T03:34:02;6.60;;;5.88;;
20203;SDS011;10261;49.010;12.034;2023-04-29T03:35:05;7.82;;;5.50;;
20203;SDS011;10261;49.010;12.034;2023-04-29T03:36:08;9.43;;;5.78;;
20203;SDS011;10261;49.010;12.034;2023-04-29T03:37:10;7.15;;;5.50;;
20203;SDS011;10261;49.010;12.034;2023-04-29T03:38:13;8.10;;;6.22;;
20203;SDS011;10261;49.010;12.034;2023-04-29T03:39:16;11.60;;;6.80;;
20203;SDS011;10261;49.010;12.034;2023-04-29T03:40:19;6.15;;;5.22;;
20203;SDS011;10261;49.010;12.034;2023-04-29T03:41:20;8.38;;;5.80;;
20203;SDS011;10261;49.010;12.034;2023-04-29T03:42:24;6.55;;;5.80;;
20203;SDS011;10261;49.010;12.034;2023-04-29T03:43:26;8.70;;;5.47;;
20203;SDS011;10261;49.010;12.034;2023-04-29T03:44:31;6.00;;;4.85;;
20203;SDS011;10261;49.010;12.034;2023-04-29T03:45:32;7.32;;;5.65;;
20203;SDS011;10261;49.010;12.034;2023-04-29T03:46:35;9.10;;;6.35;;
20203;SDS011;10261;49.010;12.034;2023-04-29T03:47:38;6.85;;;5.50;;
20203;SDS011;10261;49.010;12.034;2023-04-29T03:48:41;10.95;;;6.05;;
20203;SDS011;10261;49.010;12.034;2023-04-29T03:49:43;6.10;;;5.05;;
20203;SDS011;10261;49.010;12.034;2023-04-29T03:50:46;9.35;;;6.20;;
20203;SDS011;10261;49.010;12.034;2023-04-29T03:51:48;6.13;;;5.30;;
20203;SDS011;10261;49.010;12.034;2023-04-29T03:52:51;8.60;;;5.57;;
20203;SDS011;10261;49.010;12.034;2023-04-29T03:53:54;6.60;;;5.95;;
20203;SDS011;10261;49.010;12.034;2023-04-29T03:54:58;8.63;;;6.10;;
20203;SDS011;10261;49.010;12.034;2023-04-29T03:56:00;7.00;;;5.70;;
20203;SDS011;10261;49.010;12.034;2023-04-29T03:57:02;10.20;;;5.45;;
20203;SDS011;10261;49.010;12.034;2023-04-29T03:58:04;11.93;;;5.97;;
20203;SDS011;10261;49.010;12.034;2023-04-29T03:59:07;8.27;;;5.78;;
20203;SDS011;10261;49.010;12.034;2023-04-29T04:00:11;7.70;;;6.43;;
20203;SDS011;10261;49.010;12.034;2023-04-29T04:01:15;8.48;;;6.40;;
20203;SDS011;10261;49.010;12.034;2023-04-29T04:02:17;6.63;;;6.03;;
20203;SDS011;10261;49.010;12.034;2023-04-29T04:03:20;6.45;;;5.13;;
20203;SDS011;10261;49.010;12.034;2023-04-29T04:04:24;7.80;;;6.63;;
20203;SDS011;10261;49.010;12.034;2023-04-29T04:05:27;10.60;;;5.90;;
20203;SDS011;10261;49.010;12.034;2023-04-29T04:06:29;5.70;;;5.10;;
20203;SDS011;10261;49.010;12.034;2023-04-29T04:07:32;9.52;;;6.20;;
20203;SDS011;10261;49.010;12.034;2023-04-29T04:08:34;9.00;;;6.20;;
20203;SDS011;10261;49.010;12.034;2023-04-29T04:09:37;13.77;;;8.20;;
20203;SDS011;10261;49.010;12.034;2023-04-29T04:10:39;8.68;;;6.63;;
20203;SDS011;10261;49.010;12.034;2023-04-29T04:11:42;8.65;;;6.80;;
20203;SDS011;10261;49.010;12.034;2023-04-29T04:12:44;9.65;;;6.95;;
20203;SDS011;10261;49.010;12.034;2023-04-29T04:13:47;11.25;;;7.22;;
20203;SDS011;10261;49.010;12.034;2023-04-29T04:14:50;9.68;;;6.57;;
20203;SDS011;10261;49.010;12.034;2023-04-29T04:15:54;7.75;;;5.60;;
20203;SDS011;10261;49.010;12.034;2023-04-29T04:16:57;9.35;;;7.43;;
20203;SDS011;10261;49.010;12.034;2023-04-29T04:18:00;10.07;;;7.00;;
20203;SDS011;10261;49.010;12.034;2023-04-29T04:19:02;9.73;;;7.15;;
20203;SDS011;10261;49.010;12.034;2023-04-29T04:20:05;7.30;;;6.10;;
20203;SDS011;10261;49.010;12.034;2023-04-29T04:21:08;9.25;;;6.90;;
20203;SDS011;10261;49.010;12.034;2023-04-29T04:22:12;7.05;;;6.18;;
20203;SDS011;10261;49.010;12.034;2023-04-29T04:23:14;13.05;;;7.22;;
20203;SDS011;10261;49.010;12.034;2023-04-29T04:24:17;11.32;;;6.55;;
20203;SDS011;10261;49.010;12.034;2023-04-29T04:25:19;9.10;;;7.30;;
20203;SDS011;10261;49.010;12.034;2023-04-29T04:26:22;14.90;;;7.07;;
20203;SDS011;10261;49.010;12.034;2023-04-29T04:27:24;12.30;;;7.18;;
20203;SDS011;10261;49.010;12.034;2023-04-29T04:28:27;9.85;;;6.70;;
20203;SDS011;10261;49.010;12.034;2023-04-29T04:29:29;8.70;;;5.78;;
20203;SDS011;10261;49.010;12.034;2023-04-29T04:30:34;8.98;;;6.78;;
20203;SDS011;10261;49.010;12.034;2023-04-29T04:31:37;16.20;;;7.22;;
20203;SDS011;10261;49.010;12.034;2023-04-29T04:32:40;7.75;;;5.78;;
20203;SDS011;10261;49.010;12.034;2023-04-29T04:33:42;7.15;;;6.05;;
20203;SDS011;10261;49.010;12.034;2023-04-29T04:34:46;7.78;;;5.20;;
20203;SDS011;10261;49.010;12.034;2023-04-29T04:35:48;7.90;;;5.80;;
20203;SDS011;10261;49.010;12.034;2023-04-29T04:36:51;10.48;;;5.05;;
20203;SDS011;10261;49.010;12.034;2023-04-29T04:37:53;8.02;;;6.03;;
20203;SDS011;10261;49.010;12.034;2023-04-29T04:38:56;7.20;;;5.70;;
20203;SDS011;10261;49.010;12.034;2023-04-29T04:39:58;8.98;;;5.95;;
20203;SDS011;10261;49.010;12.034;2023-04-29T04:41:01;7.88;;;5.50;;
20203;SDS011;10261;49.010;12.034;2023-04-29T04:42:06;8.68;;;5.45;;
20203;SDS011;10261;49.010;12.034;2023-04-29T04:43:09;6.47;;;5.28;;
20203;SDS011;10261;49.010;12.034;2023-04-29T04:44:11;9.15;;;5.38;;
20203;SDS011;10261;49.010;12.034;2023-04-29T04:45:14;8.32;;;5.13;;
20203;SDS011;10261;49.010;12.034;2023-04-29T04:46:16;6.32;;;5.18;;
20203;SDS011;10261;49.010;12.034;2023-04-29T04:47:21;11.10;;;5.20;;
20203;SDS011;10261;49.010;12.034;2023-04-29T04:48:23;8.68;;;5.35;;
20203;SDS011;10261;49.010;12.034;2023-04-29T04:49:26;7.53;;;5.93;;
20203;SDS011;10261;49.010;12.034;2023-04-29T04:50:28;6.63;;;5.90;;
20203;SDS011;10261;49.010;12.034;2023-04-29T04:51:31;8.43;;;6.72;;
20203;SDS011;10261;49.010;12.034;2023-04-29T04:52:33;6.38;;;5.38;;
20203;SDS011;10261;49.010;12.034;2023-04-29T04:53:36;7.70;;;5.95;;
20203;SDS011;10261;49.010;12.034;2023-04-29T04:54:39;7.28;;;6.32;;
20203;SDS011;10261;49.010;12.034;2023-04-29T04:55:42;9.75;;;6.10;;
20203;SDS011;10261;49.010;12.034;2023-04-29T04:56:44;6.70;;;5.75;;
20203;SDS011;10261;49.010;12.034;2023-04-29T04:57:48;6.82;;;5.75;;
20203;SDS011;10261;49.010;12.034;2023-04-29T04:58:50;7.30;;;5.47;;
20203;SDS011;10261;49.010;12.034;2023-04-29T04:59:53;10.75;;;7.20;;
20203;SDS011;10261;49.010;12.034;2023-04-29T05:00:55;7.20;;;6.03;;
20203;SDS011;10261;49.010;12.034;2023-04-29T05:01:59;8.25;;;6.45;;
20203;SDS011;10261;49.010;12.034;2023-04-29T05:03:02;9.70;;;7.30;;
20203;SDS011;10261;49.010;12.034;2023-04-29T05:04:06;11.23;;;7.60;;
20203;SDS011;10261;49.010;12.034;2023-04-29T05:05:08;11.57;;;7.95;;
20203;SDS011;10261;49.010;12.034;2023-04-29T05:06:11;10.50;;;6.57;;
20203;SDS011;10261;49.010;12.034;2023-04-29T05:07:13;9.52;;;7.00;;
20203;SDS011;10261;49.010;12.034;2023-04-29T05:08:16;8.85;;;6.93;;
20203;SDS011;10261;49.010;12.034;2023-04-29T05:09:17;12.50;;;7.60;;
20203;SDS011;10261;49.010;12.034;2023-04-29T05:10:21;10.10;;;7.30;;
20203;SDS011;10261;49.010;12.034;2023-04-29T05:11:26;9.40;;;7.28;;
20203;SDS011;10261;49.010;12.034;2023-04-29T05:12:29;10.52;;;7.32;;
20203;SDS011;10261;49.010;12.034;2023-04-29T05:13:31;9.40;;;7.50;;
20203;SDS011;10261;49.010;12.034;2023-04-29T05:14:34;9.10;;;7.30;;
20203;SDS011;10261;49.010;12.034;2023-04-29T05:15:36;10.23;;;7.70;;
20203;SDS011;10261;49.010;12.034;2023-04-29T05:16:39;10.18;;;6.93;;
20203;SDS011;10261;49.010;12.034;2023-04-29T05:17:41;11.52;;;7.45;;
20203;SDS011;10261;49.010;12.034;2023-04-29T05:18:46;10.82;;;7.90;;
20203;SDS011;10261;49.010;12.034;2023-04-29T05:19:48;12.48;;;8.50;;
20203;SDS011;10261;49.010;12.034;2023-04-29T05:20:51;10.60;;;7.72;;
20203;SDS011;10261;49.010;12.034;2023-04-29T05:21:53;11.80;;;7.60;;
20203;SDS011;10261;49.010;12.034;2023-04-29T05:22:56;12.00;;;8.95;;
20203;SDS011;10261;49.010;12.034;2023-04-29T05:23:58;12.40;;;9.15;;
20203;SDS011;10261;49.010;12.034;2023-04-29T05:25:01;13.30;;;8.50;;
20203;SDS011;10261;49.010;12.034;2023-04-29T05:26:04;13.82;;;8.35;;
20203;SDS011;10261;49.010;12.034;2023-04-29T05:27:07;12.50;;;8.90;;
20203;SDS011;10261;49.010;12.034;2023-04-29T05:28:09;14.25;;;8.57;;
20203;SDS011;10261;49.010;12.034;2023-04-29T05:29:12;12.52;;;8.65;;
20203;SDS011;10261;49.010;12.034;2023-04-29T05:30:14;11.00;;;7.82;;
20203;SDS011;10261;49.010;12.034;2023-04-29T05:31:18;11.55;;;7.60;;
20203;SDS011;10261;49.010;12.034;2023-04-29T05:32:21;13.07;;;8.85;;
20203;SDS011;10261;49.010;12.034;2023-04-29T05:33:24;13.25;;;9.13;;
20203;SDS011;10261;49.010;12.034;2023-04-29T05:34:27;9.82;;;7.25;;
20203;SDS011;10261;49.010;12.034;2023-04-29T05:35:30;11.15;;;8.43;;
20203;SDS011;10261;49.010;12.034;2023-04-29T05:36:32;10.40;;;7.95;;
20203;SDS011;10261;49.010;12.034;2023-04-29T05:37:35;11.63;;;7.90;;
20203;SDS011;10261;49.010;12.034;2023-04-29T05:38:37;10.77;;;8.77;;
20203;SDS011;10261;49.010;12.034;2023-04-29T05:39:40;11.20;;;8.75;;
20203;SDS011;10261;49.010;12.034;2023-04-29T05:40:43;10.43;;;8.45;;
20203;SDS011;10261;49.010;12.034;2023-04-29T05:41:46;11.02;;;8.25;;
20203;SDS011;10261;49.010;12.034;2023-04-29T05:42:48;11.98;;;8.57;;
20203;SDS011;10261;49.010;12.034;2023-04-29T05:43:51;10.32;;;8.70;;
20203;SDS011;10261;49.010;12.034;2023-04-29T05:44:53;12.43;;;8.48;;
20203;SDS011;10261;49.010;12.034;2023-04-29T05:45:56;9.10;;;7.03;;
20203;SDS011;10261;49.010;12.034;2023-04-29T05:46:59;10.40;;;7.88;;
20203;SDS011;10261;49.010;12.034;2023-04-29T05:48:01;14.63;;;8.13;;
20203;SDS011;10261;49.010;12.034;2023-04-29T05:49:04;14.50;;;8.98;;
20203;SDS011;10261;49.010;12.034;2023-04-29T05:50:08;11.50;;;8.15;;
20203;SDS011;10261;49.010;12.034;2023-04-29T05:51:12;10.90;;;8.02;;
20203;SDS011;10261;49.010;12.034;2023-04-29T05:52:14;10.63;;;7.82;;
20203;SDS011;10261;49.010;12.034;2023-04-29T05:53:17;9.57;;;7.80;;
20203;SDS011;10261;49.010;12.034;2023-04-29T05:54:19;11.27;;;8.30;;
20203;SDS011;10261;49.010;12.034;2023-04-29T05:55:22;10.93;;;8.18;;
20203;SDS011;10261;49.010;12.034;2023-04-29T05:56:24;14.98;;;8.70;;
20203;SDS011;10261;49.010;12.034;2023-04-29T05:57:27;16.70;;;9.82;;
20203;SDS011;10261;49.010;12.034;2023-04-29T05:58:29;12.95;;;8.45;;
20203;SDS011;10261;49.010;12.034;2023-04-29T05:59:32;11.45;;;8.35;;
20203;SDS011;10261;49.010;12.034;2023-04-29T06:00:34;13.02;;;8.48;;
20203;SDS011;10261;49.010;12.034;2023-04-29T06:01:37;13.63;;;8.57;;
20203;SDS011;10261;49.010;12.034;2023-04-29T06:02:39;10.00;;;9.00;;
20203;SDS011;10261;49.010;12.034;2023-04-29T06:03:58;10.75;;;8.10;;
20203;SDS011;10261;49.010;12.034;2023-04-29T06:05:01;14.02;;;9.18;;
20203;SDS011;10261;49.010;12.034;2023-04-29T06:06:06;10.98;;;8.40;;
20203;SDS011;10261;49.010;12.034;2023-04-29T06:07:09;12.82;;;9.15;;
20203;SDS011;10261;49.010;12.034;2023-04-29T06:08:12;12.10;;;8.88;;
20203;SDS011;10261;49.010;12.034;2023-04-29T06:09:17;10.90;;;8.23;;
20203;SDS011;10261;49.010;12.034;2023-04-29T06:10:28;11.65;;;8.82;;
20203;SDS011;10261;49.010;12.034;2023-04-29T06:11:30;11.38;;;8.90;;
20203;SDS011;10261;49.010;12.034;2023-04-29T06:12:33;10.25;;;7.88;;
20203;SDS011;10261;49.010;12.034;2023-04-29T06:13:36;12.48;;;8.85;;
20203;SDS011;10261;49.010;12.034;2023-04-29T06:14:38;15.70;;;8.60;;
20203;SDS011;10261;49.010;12.034;2023-04-29T06:15:41;13.68;;;10.10;;